METAR Data
IDs: Format: Raw Decoded Include TAF

Data at: 2013 UTC 25 Oct 2021

EGNS 251950Z 25015KT 9999 SCT024 12/07 Q1011